createdAt,value
2023-04-11T00:03:01.775Z,10.23
2023-04-11T00:05:31.347Z,10.75
2023-04-11T00:07:57.976Z,11.70
2023-04-11T00:12:56.424Z,12.15
2023-04-11T00:15:24.701Z,11.52
2023-04-11T00:17:51.404Z,11.82
2023-04-11T00:20:18.027Z,10.65
2023-04-11T00:25:11.306Z,11.90
2023-04-11T00:27:37.903Z,11.52
2023-04-11T00:32:32.110Z,11.77
2023-04-11T00:34:59.187Z,10.45
2023-04-11T00:37:25.852Z,13.13
2023-04-11T00:39:55.965Z,12.25
2023-04-11T00:42:22.891Z,11.38
2023-04-11T00:44:50.814Z,12.38
2023-04-11T00:47:18.454Z,11.73
2023-04-11T00:49:45.770Z,11.77
2023-04-11T00:52:13.722Z,11.10
2023-04-11T00:54:40.608Z,11.18
2023-04-11T00:57:08.122Z,11.10
2023-04-11T00:59:35.171Z,12.20
2023-04-11T01:02:02.037Z,12.07
2023-04-11T01:04:31.683Z,11.40
2023-04-11T01:07:06.287Z,12.57
2023-04-11T01:09:34.417Z,12.93
2023-04-11T01:12:02.906Z,13.10
2023-04-11T01:14:29.781Z,12.65
2023-04-11T01:16:56.719Z,11.40
2023-04-11T01:19:25.838Z,12.30
2023-04-11T01:21:53.594Z,12.40
2023-04-11T01:24:20.585Z,12.60
2023-04-11T01:26:47.295Z,12.30
2023-04-11T01:29:15.679Z,12.13
2023-04-11T01:31:43.074Z,12.77
2023-04-11T01:34:12.926Z,12.88
2023-04-11T01:36:40.984Z,13.85
2023-04-11T01:39:07.996Z,13.52
2023-04-11T01:41:35.827Z,12.65
2023-04-11T01:44:03.917Z,12.48
2023-04-11T01:46:31.282Z,13.93
2023-04-11T01:48:59.825Z,12.27
2023-04-11T01:51:27.160Z,12.20
2023-04-11T01:53:53.762Z,13.48
2023-04-11T01:56:20.389Z,12.10
2023-04-11T01:58:46.954Z,12.18
2023-04-11T02:01:18.037Z,12.25
2023-04-11T02:03:46.406Z,12.40
2023-04-11T02:06:13.187Z,11.43
2023-04-11T02:11:08.118Z,11.70
2023-04-11T02:13:35.640Z,11.63
2023-04-11T02:16:16.066Z,13.52
2023-04-11T02:18:44.580Z,13.57
2023-04-11T02:21:11.368Z,13.45
2023-04-11T02:23:38.096Z,12.73
2023-04-11T02:26:06.064Z,14.40
2023-04-11T02:28:32.786Z,12.82
2023-04-11T02:30:59.294Z,14.43
2023-04-11T02:33:26.252Z,14.65
2023-04-11T02:35:52.957Z,12.85
2023-04-11T02:38:21.018Z,13.82
2023-04-11T02:40:47.825Z,14.23
2023-04-11T02:43:14.980Z,13.65
2023-04-11T02:45:41.919Z,13.38
2023-04-11T02:48:09.721Z,13.43
2023-04-11T02:50:41.685Z,14.32
2023-04-11T02:53:08.564Z,13.82
2023-04-11T02:55:38.531Z,15.05
2023-04-11T03:00:31.516Z,13.88
2023-04-11T03:03:06.973Z,14.05
2023-04-11T03:05:38.996Z,15.52
2023-04-11T03:08:08.887Z,14.73
2023-04-11T03:10:37.021Z,15.60
2023-04-11T03:13:04.361Z,15.63
2023-04-11T03:18:03.429Z,15.77
2023-04-11T03:20:29.983Z,16.15
2023-04-11T03:22:56.610Z,14.93
2023-04-11T03:25:24.182Z,15.77
2023-04-11T03:27:51.699Z,16.85
2023-04-11T03:32:47.157Z,16.42
2023-04-11T03:37:45.296Z,16.05
2023-04-11T03:42:41.904Z,15.80
2023-04-11T03:45:12.957Z,15.60
2023-04-11T03:47:40.368Z,15.40
2023-04-11T03:50:08.153Z,16.95
2023-04-11T03:52:41.066Z,15.25
2023-04-11T03:55:12.173Z,15.55
2023-04-11T03:57:38.885Z,14.65
2023-04-11T04:00:06.529Z,15.82
2023-04-11T04:02:41.845Z,15.75
2023-04-11T04:05:11.694Z,17.00
2023-04-11T04:07:39.825Z,15.18
2023-04-11T04:10:13.048Z,15.57
2023-04-11T04:12:41.247Z,15.90
2023-04-11T04:15:14.964Z,15.15
2023-04-11T04:17:44.049Z,16.25
2023-04-11T04:20:17.293Z,14.52
2023-04-11T04:22:48.624Z,15.75
2023-04-11T04:25:20.139Z,16.02
2023-04-11T04:27:48.250Z,16.15
2023-04-11T04:30:19.092Z,16.38
2023-04-11T04:33:03.836Z,15.50
2023-04-11T04:35:32.614Z,16.10
2023-04-11T04:38:06.162Z,15.75
2023-04-11T04:40:54.761Z,16.70
2023-04-11T04:43:23.618Z,16.23
2023-04-11T04:46:08.526Z,17.08
2023-04-11T04:48:41.792Z,15.23
2023-04-11T04:53:38.570Z,17.00
2023-04-11T04:56:06.581Z,12.15
2023-04-11T04:58:37.329Z,10.35
2023-04-11T05:01:09.115Z,10.35
2023-04-11T05:03:38.996Z,10.80
2023-04-11T05:06:10.727Z,11.68
2023-04-11T05:08:38.687Z,11.52
2023-04-11T05:11:07.242Z,11.57
2023-04-11T05:13:34.559Z,8.93
2023-04-11T05:16:02.848Z,8.85
2023-04-11T05:20:57.608Z,6.72
2023-04-11T05:23:29.962Z,5.68
2023-04-11T05:26:01.213Z,5.13
2023-04-11T05:28:30.114Z,4.85
2023-04-11T05:30:56.749Z,4.47
2023-04-11T05:33:24.738Z,4.60
2023-04-11T05:35:51.870Z,4.10
2023-04-11T05:38:19.547Z,4.50
2023-04-11T05:40:46.292Z,4.00
2023-04-11T05:43:16.321Z,3.63
2023-04-11T05:45:47.557Z,3.08
2023-04-11T05:48:16.207Z,4.32
2023-04-11T05:50:42.981Z,3.70
2023-04-11T05:53:09.567Z,3.10
2023-04-11T05:58:03.327Z,3.55
2023-04-11T06:00:32.179Z,3.45
2023-04-11T06:03:00.316Z,3.42
2023-04-11T06:05:31.207Z,3.53
2023-04-11T06:08:01.871Z,2.72
2023-04-11T06:10:29.512Z,3.15
2023-04-11T06:12:56.577Z,2.67
2023-04-11T06:15:24.467Z,3.05
2023-04-11T06:17:51.157Z,3.22
2023-04-11T06:20:18.485Z,3.15
2023-04-11T06:22:46.783Z,2.90
2023-04-11T06:25:13.258Z,3.30
2023-04-11T06:27:39.852Z,3.10
2023-04-11T06:32:33.196Z,3.20
2023-04-11T06:34:59.664Z,3.15
2023-04-11T06:39:52.749Z,3.38
2023-04-11T06:42:19.211Z,2.92
2023-04-11T06:44:46.776Z,5.15
2023-04-11T06:47:13.263Z,3.83
2023-04-11T06:49:40.977Z,3.15
2023-04-11T06:52:07.492Z,3.15
2023-04-11T06:57:00.996Z,2.00
2023-04-11T07:04:20.770Z,3.35
2023-04-11T07:06:47.889Z,3.00
2023-04-11T07:09:14.688Z,2.10
2023-04-11T07:11:41.484Z,2.03
2023-04-11T07:14:07.923Z,2.22
2023-04-11T07:16:34.504Z,1.70
2023-04-11T07:19:01.082Z,2.20
2023-04-11T07:23:55.170Z,2.10
2023-04-11T07:26:23.865Z,2.40
2023-04-11T07:28:51.171Z,2.30
2023-04-11T07:31:19.895Z,2.30
2023-04-11T07:33:46.420Z,2.00
2023-04-11T07:38:39.415Z,2.35
2023-04-11T07:43:32.513Z,2.40
2023-04-11T07:45:59.722Z,2.38
2023-04-11T07:48:27.591Z,2.17
2023-04-11T07:50:55.257Z,2.28
2023-04-11T07:53:22.389Z,2.33
2023-04-11T07:55:48.903Z,1.73
2023-04-11T08:00:41.896Z,2.20
2023-04-11T08:05:37.050Z,1.80
2023-04-11T08:08:04.913Z,2.28
2023-04-11T08:10:31.545Z,1.95
2023-04-11T08:15:26.211Z,2.45
2023-04-11T08:17:56.462Z,2.30
2023-04-11T08:20:24.280Z,2.13
2023-04-11T08:22:50.890Z,1.80
2023-04-11T08:25:19.932Z,2.80
2023-04-11T08:27:46.440Z,2.15
2023-04-11T08:32:39.722Z,1.92
2023-04-11T08:35:06.493Z,1.52
2023-04-11T08:37:32.966Z,1.70
2023-04-11T08:42:30.907Z,4.13
2023-04-11T08:45:04.245Z,3.95
2023-04-11T08:47:30.887Z,2.42
2023-04-11T08:49:57.392Z,2.13
2023-04-11T08:52:24.627Z,2.30
2023-04-11T08:54:57.271Z,2.00
2023-04-11T08:57:31.395Z,2.40
2023-04-11T09:00:11.772Z,2.13
2023-04-11T09:03:01.701Z,2.47
2023-04-11T09:05:47.210Z,1.67
2023-04-11T09:08:16.017Z,1.55
2023-04-11T09:10:46.118Z,1.88
2023-04-11T09:13:24.556Z,1.83
2023-04-11T09:16:09.091Z,1.80
2023-04-11T09:18:40.452Z,1.45
2023-04-11T09:21:12.736Z,1.50
2023-04-11T09:23:39.651Z,1.80
2023-04-11T09:26:07.877Z,1.45
2023-04-11T09:28:54.601Z,1.30
2023-04-11T09:31:22.052Z,1.95
2023-04-11T09:33:56.525Z,2.10
2023-04-11T09:36:25.286Z,1.77
2023-04-11T09:38:52.133Z,2.08
2023-04-11T09:41:35.921Z,2.10
2023-04-11T09:44:02.995Z,2.15
2023-04-11T09:46:29.512Z,2.17
2023-04-11T09:53:53.184Z,2.22
2023-04-11T09:56:19.945Z,2.50
2023-04-11T09:58:47.917Z,2.10
2023-04-11T10:01:15.803Z,2.47
2023-04-11T10:03:42.832Z,2.65
2023-04-11T10:06:16.110Z,2.47
2023-04-11T10:08:43.111Z,2.20
2023-04-11T10:11:14.228Z,2.08
2023-04-11T10:13:44.663Z,2.10
2023-04-11T10:16:18.746Z,2.15
2023-04-11T10:18:54.075Z,2.65
2023-04-11T10:21:32.948Z,2.83
2023-04-11T10:24:16.723Z,2.60
2023-04-11T10:26:47.909Z,2.58
2023-04-11T10:29:29.692Z,2.20
2023-04-11T10:32:09.158Z,2.45
2023-04-11T10:34:38.784Z,2.25
2023-04-11T10:37:09.948Z,1.98
2023-04-11T10:40:05.618Z,2.15
2023-04-11T10:42:43.153Z,2.78
2023-04-11T10:45:29.608Z,2.33
2023-04-11T10:47:56.193Z,2.33
2023-04-11T10:52:53.231Z,2.50
2023-04-11T10:55:19.907Z,2.72
2023-04-11T10:58:08.255Z,2.50
2023-04-11T11:00:46.671Z,1.80
2023-04-11T11:03:19.259Z,2.78
2023-04-11T11:05:47.300Z,2.22
2023-04-11T11:08:13.962Z,2.42
2023-04-11T11:10:43.016Z,1.77
2023-04-11T11:13:10.720Z,2.50
2023-04-11T11:15:37.965Z,2.00
2023-04-11T11:18:07.121Z,1.98
2023-04-11T11:20:34.547Z,2.15
2023-04-11T11:23:04.375Z,2.28
2023-04-11T11:25:31.045Z,2.25
2023-04-11T11:28:02.124Z,2.13
2023-04-11T11:30:28.650Z,2.22
2023-04-11T11:35:23.883Z,2.97
2023-04-11T11:37:52.537Z,2.25
2023-04-11T11:40:22.204Z,2.90
2023-04-11T11:42:50.855Z,2.35
2023-04-11T11:45:22.037Z,2.55
2023-04-11T11:47:50.259Z,2.90
2023-04-11T11:50:28.178Z,2.30
2023-04-11T11:52:55.351Z,2.78
2023-04-11T11:55:22.425Z,2.50
2023-04-11T11:57:50.150Z,2.47
2023-04-11T12:00:24.394Z,3.00
2023-04-11T12:02:53.064Z,2.35
2023-04-11T12:05:20.124Z,8.50
2023-04-11T12:07:46.662Z,3.83
2023-04-11T12:12:53.676Z,2.95
2023-04-11T12:15:22.918Z,2.53
2023-04-11T12:17:51.314Z,2.80
2023-04-11T12:20:22.733Z,2.90
2023-04-11T12:22:50.113Z,2.90
2023-04-11T12:25:17.565Z,2.17
2023-04-11T12:30:15.191Z,2.08
2023-04-11T12:32:41.878Z,2.20
2023-04-11T12:35:09.354Z,2.33
2023-04-11T12:37:35.927Z,2.33
2023-04-11T12:42:36.911Z,2.22
2023-04-11T12:45:12.701Z,2.15
2023-04-11T12:47:39.920Z,2.40
2023-04-11T12:50:07.142Z,2.50
2023-04-11T12:52:34.266Z,2.25
2023-04-11T12:55:00.880Z,2.47
2023-04-11T12:59:54.475Z,2.42
2023-04-11T13:02:21.383Z,3.92
2023-04-11T13:04:48.835Z,3.50
2023-04-11T13:07:15.439Z,2.15
2023-04-11T13:12:08.646Z,2.03
2023-04-11T13:14:36.445Z,2.40
2023-04-11T13:17:03.340Z,1.65
2023-04-11T13:19:29.920Z,2.63
2023-04-11T13:24:22.938Z,2.58
2023-04-11T13:26:49.586Z,2.33
2023-04-11T13:29:16.297Z,2.85
2023-04-11T13:31:42.821Z,2.40
2023-04-11T13:36:35.844Z,2.30
2023-04-11T13:39:02.910Z,2.15
2023-04-11T13:41:29.494Z,2.05
2023-04-11T13:46:23.112Z,1.70
2023-04-11T13:48:49.559Z,1.58
2023-04-11T13:51:16.102Z,2.15
2023-04-11T13:56:09.060Z,1.55
2023-04-11T13:58:35.573Z,1.95
2023-04-11T14:01:02.113Z,2.03
2023-04-11T14:03:33.220Z,2.25
2023-04-11T14:06:01.160Z,2.20
2023-04-11T14:08:28.987Z,1.83
2023-04-11T14:10:55.649Z,1.90
2023-04-11T14:15:54.831Z,2.17
2023-04-11T14:18:31.781Z,2.90
2023-04-11T14:23:28.854Z,2.25
2023-04-11T14:25:55.415Z,3.25
2023-04-11T14:28:21.926Z,2.55
2023-04-11T14:33:14.951Z,2.88
2023-04-11T14:35:42.717Z,4.90
2023-04-11T14:38:09.188Z,4.55
2023-04-11T14:40:35.702Z,4.35
2023-04-11T14:45:28.611Z,3.10
2023-04-11T14:47:55.335Z,3.92
2023-04-11T14:50:21.837Z,3.22
2023-04-11T14:55:14.802Z,4.53
2023-04-11T14:57:45.104Z,2.92
2023-04-11T15:00:18.059Z,4.13
2023-04-11T15:02:46.790Z,5.97
2023-04-11T15:05:18.079Z,4.53
2023-04-11T15:07:46.597Z,5.05
2023-04-11T15:10:14.151Z,3.83
2023-04-11T15:12:40.936Z,3.53
2023-04-11T15:15:11.721Z,6.30
2023-04-11T15:17:43.188Z,8.15
2023-04-11T15:20:11.814Z,3.63
2023-04-11T15:22:40.838Z,2.95
2023-04-11T15:25:10.596Z,3.00
2023-04-11T15:27:37.176Z,3.38
2023-04-11T15:32:30.497Z,3.53
2023-04-11T15:37:23.471Z,2.28
2023-04-11T15:42:17.246Z,2.60
2023-04-11T15:44:44.532Z,2.72
2023-04-11T15:47:11.789Z,2.63
2023-04-11T15:49:39.408Z,3.30
2023-04-11T15:52:06.510Z,4.03
2023-04-11T15:54:33.370Z,3.50
2023-04-11T15:56:59.996Z,3.65
2023-04-11T15:59:26.682Z,5.20
2023-04-11T16:04:20.594Z,3.38
2023-04-11T16:06:47.266Z,3.95
2023-04-11T16:11:40.861Z,3.67
2023-04-11T16:14:07.389Z,3.17
2023-04-11T16:16:33.982Z,3.22
2023-04-11T16:19:00.550Z,4.80
2023-04-11T16:21:28.152Z,4.13
2023-04-11T16:23:55.242Z,10.15
2023-04-11T16:26:22.611Z,10.10
2023-04-11T16:28:49.442Z,4.45
2023-04-11T16:31:21.943Z,11.25
2023-04-11T16:33:48.500Z,4.05
2023-04-11T16:38:42.077Z,3.42
2023-04-11T16:43:34.972Z,3.53
2023-04-11T16:48:27.996Z,3.20
2023-04-11T16:50:54.449Z,3.05
2023-04-11T16:53:21.077Z,2.80
2023-04-11T16:55:47.630Z,4.95
2023-04-11T17:00:40.439Z,7.32
2023-04-11T17:05:37.904Z,3.60
2023-04-11T17:08:04.396Z,4.10
2023-04-11T17:12:58.329Z,4.40
2023-04-11T17:15:24.877Z,4.22
2023-04-11T17:20:17.871Z,3.63
2023-04-11T17:25:11.429Z,2.50
2023-04-11T17:27:37.905Z,3.05
2023-04-11T17:30:05.586Z,3.50
2023-04-11T17:32:32.568Z,3.83
2023-04-11T17:35:00.691Z,5.25
2023-04-11T17:37:27.726Z,4.32
2023-04-11T17:39:54.547Z,3.88
2023-04-11T17:42:21.478Z,3.55
2023-04-11T17:44:47.960Z,3.47
2023-04-11T17:47:14.843Z,3.15
2023-04-11T17:49:41.343Z,3.72
2023-04-11T17:54:34.867Z,2.80
2023-04-11T17:57:01.313Z,3.92
2023-04-11T17:59:27.862Z,2.72
2023-04-11T18:04:23.173Z,2.60
2023-04-11T18:06:49.704Z,3.30
2023-04-11T18:11:44.076Z,3.13
2023-04-11T18:14:10.863Z,3.00
2023-04-11T18:16:39.031Z,3.58
2023-04-11T18:19:05.499Z,3.53
2023-04-11T18:23:58.608Z,3.17
2023-04-11T18:26:25.330Z,3.22
2023-04-11T18:31:18.306Z,2.72
2023-04-11T18:33:47.153Z,3.30
2023-04-11T18:36:25.336Z,3.08
2023-04-11T18:38:52.237Z,3.63
2023-04-11T18:41:19.690Z,2.40
2023-04-11T18:43:46.749Z,3.50
2023-04-11T18:48:40.909Z,2.55
2023-04-11T18:51:07.446Z,3.33
2023-04-11T18:56:03.249Z,3.53
2023-04-11T18:58:31.900Z,3.28
2023-04-11T19:01:03.614Z,2.95
2023-04-11T19:03:36.737Z,4.00
2023-04-11T19:06:03.692Z,3.22
2023-04-11T19:08:30.317Z,3.38
2023-04-11T19:13:23.223Z,3.28
2023-04-11T19:18:16.218Z,2.88
2023-04-11T19:23:09.248Z,3.42
2023-04-11T19:25:35.986Z,3.42
2023-04-11T19:28:03.121Z,2.72
2023-04-11T19:30:29.618Z,3.22
2023-04-11T19:37:50.935Z,3.60
2023-04-11T19:42:44.875Z,4.43
2023-04-11T19:47:39.897Z,3.70
2023-04-11T19:50:14.560Z,4.25
2023-04-11T19:52:42.626Z,4.63
2023-04-11T19:55:10.752Z,4.18
2023-04-11T19:57:40.802Z,5.53
2023-04-11T20:00:13.414Z,4.88
2023-04-11T20:02:44.994Z,4.90
2023-04-11T20:05:13.709Z,4.88
2023-04-11T20:07:40.284Z,4.50
2023-04-11T20:12:34.985Z,4.53
2023-04-11T20:15:02.311Z,4.22
2023-04-11T20:17:29.159Z,4.80
2023-04-11T20:19:56.370Z,4.18
2023-04-11T20:22:23.026Z,4.10
2023-04-11T20:24:49.614Z,4.10
2023-04-11T20:27:16.451Z,4.68
2023-04-11T20:29:43.486Z,4.95
2023-04-11T20:32:10.021Z,4.80
2023-04-11T20:37:04.553Z,5.90
2023-04-11T20:39:32.146Z,5.35
2023-04-11T20:42:01.032Z,6.22
2023-04-11T20:44:27.559Z,6.55
2023-04-11T20:46:54.291Z,5.57
2023-04-11T20:49:20.755Z,5.32
2023-04-11T20:54:14.156Z,5.70
2023-04-11T20:59:09.079Z,4.80
2023-04-11T21:01:35.750Z,5.60
2023-04-11T21:04:03.309Z,4.70
2023-04-11T21:06:31.698Z,5.20
2023-04-11T21:09:00.028Z,5.47
2023-04-11T21:11:27.154Z,4.82
2023-04-11T21:16:21.819Z,5.60
2023-04-11T21:18:48.660Z,5.90
2023-04-11T21:21:15.125Z,4.43
2023-04-11T21:26:08.934Z,5.00
2023-04-11T21:31:02.609Z,4.63
2023-04-11T21:33:29.094Z,4.70
2023-04-11T21:38:22.229Z,3.97
2023-04-11T21:43:15.164Z,4.78
2023-04-11T21:48:08.165Z,6.43
2023-04-11T21:50:34.659Z,5.25
2023-04-11T21:55:28.615Z,5.38
2023-04-11T22:17:50.726Z,6.95
2023-04-11T22:20:18.368Z,6.18
2023-04-11T22:22:45.055Z,5.80
2023-04-11T22:25:11.744Z,6.22
2023-04-11T22:27:38.553Z,5.97
2023-04-11T22:30:06.302Z,5.97
2023-04-11T22:32:33.674Z,5.38
2023-04-11T22:35:01.125Z,5.57
2023-04-11T22:37:27.689Z,5.45
2023-04-11T22:39:54.277Z,5.65
2023-04-11T22:42:20.979Z,6.18
2023-04-11T22:44:47.575Z,5.47
2023-04-11T22:47:16.249Z,5.28
2023-04-11T22:49:43.079Z,5.47
2023-04-11T22:52:14.022Z,5.15
2023-04-11T22:54:42.547Z,5.45
2023-04-11T22:57:09.361Z,5.70
2023-04-11T22:59:36.757Z,5.18
2023-04-11T23:02:03.485Z,5.65
2023-04-11T23:04:31.843Z,6.40
2023-04-11T23:06:59.037Z,5.82
2023-04-11T23:09:26.358Z,5.90
2023-04-11T23:11:53.529Z,5.28
2023-04-11T23:14:21.282Z,5.70
2023-04-11T23:16:48.592Z,5.68
2023-04-11T23:19:15.430Z,5.75
2023-04-11T23:21:42.090Z,6.20
2023-04-11T23:24:09.086Z,5.65
2023-04-11T23:26:36.125Z,5.65
2023-04-11T23:29:02.834Z,5.63
2023-04-11T23:31:31.012Z,5.40
2023-04-11T23:33:57.710Z,6.28
2023-04-11T23:36:24.511Z,6.15
2023-04-11T23:38:51.772Z,5.22
2023-04-11T23:41:18.675Z,5.97
2023-04-11T23:43:45.612Z,6.13
2023-04-11T23:46:13.210Z,6.35
2023-04-11T23:48:39.872Z,6.32
2023-04-11T23:51:07.272Z,5.70
2023-04-11T23:53:34.172Z,6.57
2023-04-11T23:56:00.756Z,6.10
2023-04-11T23:58:27.315Z,6.47
